Time;durP1;ratioP1;P1;durP2;ratioP2;P2;SDS_P1;SDS_P2;PMS_P1;PMS_P2;Temp;Humidity;BMP_temperature;BMP_pressure;BME280_temperature;BME280_humidity;BME280_pressure;Samples;Min_cycle;Max_cycle;Signal;HPM_P1;HPM_P2
2022/10/10 06:53:18;;;;;;;10.63;6.80;;;;;;;8.94;100.00;99093.78;5022686;28;20378;-77
2022/10/10 06:55:46;;;;;;;17.23;7.25;;;;;;;9.01;100.00;99079.31;5006941;28;20417;-77
2022/10/10 06:58:13;;;;;;;16.15;8.13;;;;;;;9.17;100.00;99077.56;5006538;28;20145;-77
2022/10/10 07:00:40;;;;;;;13.55;7.05;;;;;;;9.27;100.00;99096.31;5030414;28;20044;-77
2022/10/10 07:03:11;;;;;;;15.60;8.23;;;;;;;9.19;100.00;99080.94;5005410;28;20050;-77
2022/10/10 07:05:38;;;;;;;13.32;7.57;;;;;;;9.38;100.00;99095.94;5006749;28;20050;-77
2022/10/10 07:08:04;;;;;;;11.23;6.35;;;;;;;9.67;100.00;99116.94;5006565;28;20056;-77
2022/10/10 07:10:32;;;;;;;11.35;6.90;;;;;;;9.80;100.00;99105.50;5006585;28;20046;-77
2022/10/10 07:12:59;;;;;;;13.30;6.85;;;;;;;9.98;100.00;99109.75;5005612;28;20413;-77
2022/10/10 07:15:26;;;;;;;11.40;7.68;;;;;;;10.19;100.00;99117.19;5003171;28;20046;-77
2022/10/10 07:17:58;;;;;;;11.38;6.57;;;;;;;10.21;100.00;99083.41;5003984;28;20073;-77
2022/10/10 07:20:25;;;;;;;13.95;7.22;;;;;;;10.44;100.00;99093.41;5006519;28;20104;-77
2022/10/10 07:22:51;;;;;;;10.63;6.65;;;;;;;10.70;100.00;99097.53;5005490;28;20482;-77
2022/10/10 07:25:18;;;;;;;9.27;6.28;;;;;;;11.00;100.00;99098.34;5005890;28;20050;-78
2022/10/10 07:27:46;;;;;;;11.85;6.28;;;;;;;11.19;100.00;99099.66;5006171;28;20054;-78
2022/10/10 07:30:13;;;;;;;10.95;5.72;;;;;;;11.30;100.00;99093.69;4990720;28;20593;-78
2022/10/10 07:32:40;;;;;;;14.10;5.85;;;;;;;11.52;100.00;99097.31;5005466;28;20046;-78
2022/10/10 07:35:07;;;;;;;8.93;5.82;;;;;;;11.65;100.00;99091.16;4998319;28;20050;-78
2022/10/10 07:37:34;;;;;;;11.88;5.03;;;;;;;11.85;100.00;99099.53;5081466;28;20051;-78
2022/10/10 07:40:00;;;;;;;11.52;5.05;;;;;;;12.14;100.00;99107.78;5109592;28;20055;-77
2022/10/10 07:42:30;;;;;;;7.43;4.15;;;;;;;12.33;100.00;99096.22;5096582;28;20641;-78
2022/10/10 07:44:58;;;;;;;9.68;4.30;;;;;;;12.53;100.00;99088.16;4989334;28;20444;-77
2022/10/10 07:47:24;;;;;;;7.07;4.10;;;;;;;12.74;100.00;99105.50;4999552;28;20051;-77
2022/10/10 07:49:51;;;;;;;6.78;3.53;;;;;;;12.77;100.00;99096.91;4997543;28;20054;-78
2022/10/10 07:52:17;;;;;;;6.65;4.32;;;;;;;12.84;100.00;99116.91;5004433;28;20046;-77
2022/10/10 07:54:44;;;;;;;10.52;4.38;;;;;;;13.05;100.00;99118.69;5006107;28;20056;-77
2022/10/10 07:57:10;;;;;;;7.30;4.15;;;;;;;13.14;100.00;99124.81;5005436;28;20053;-77
2022/10/10 07:59:39;;;;;;;17.35;5.47;;;;;;;13.13;100.00;99134.06;5003761;28;20050;-78
2022/10/10 08:02:07;;;;;;;11.73;5.07;;;;;;;13.03;100.00;99122.66;5004664;28;20055;-77
2022/10/10 08:04:34;;;;;;;11.23;4.72;;;;;;;12.81;100.00;99106.41;4990205;27;20413;-78
2022/10/10 08:07:01;;;;;;;10.15;4.97;;;;;;;12.86;100.00;99117.53;5034949;28;20062;-77
2022/10/10 08:09:28;;;;;;;10.65;5.18;;;;;;;12.80;100.00;99103.88;4992580;28;20057;-78
2022/10/10 08:11:54;;;;;;;19.25;5.22;;;;;;;12.79;100.00;99102.16;4991969;28;20621;-77
2022/10/10 08:14:21;;;;;;;16.30;5.45;;;;;;;12.92;100.00;99116.72;4989722;28;20580;-78
2022/10/10 08:16:47;;;;;;;7.45;4.53;;;;;;;13.01;100.00;99116.56;4991225;28;20050;-77
2022/10/10 08:19:15;;;;;;;12.18;3.97;;;;;;;13.24;100.00;99108.06;4983696;28;20062;-78
2022/10/10 08:21:42;;;;;;;6.70;3.92;;;;;;;13.60;100.00;99124.19;4987275;28;20074;-78
2022/10/10 08:24:08;;;;;;;9.93;4.22;;;;;;;13.77;100.00;99116.44;4988943;28;20065;-78
2022/10/10 08:26:35;;;;;;;7.50;4.53;;;;;;;13.95;100.00;99120.47;4978189;28;20058;-77
2022/10/10 08:29:01;;;;;;;7.88;4.40;;;;;;;14.09;100.00;99126.78;4992095;28;20065;-78
2022/10/10 08:31:29;;;;;;;9.75;4.68;;;;;;;14.27;100.00;99123.44;4992144;28;20153;-78
2022/10/10 08:33:56;;;;;;;9.93;3.97;;;;;;;14.26;100.00;99119.88;4981575;28;20089;-78
2022/10/10 08:36:24;;;;;;;11.73;5.13;;;;;;;14.37;100.00;99112.09;5000996;28;20050;-78
2022/10/10 08:38:54;;;;;;;8.43;4.18;;;;;;;14.34;100.00;99099.69;5051968;28;20131;-78
2022/10/10 08:41:38;;;;;;;13.52;4.05;;;;;;;14.55;100.00;99133.34;5094779;28;20661;-78
2022/10/10 08:44:13;;;;;;;15.07;4.40;;;;;;;14.52;100.00;99105.34;5093637;28;20052;-78
2022/10/10 08:46:44;;;;;;;6.20;3.33;;;;;;;14.78;100.00;99132.91;5094846;28;20048;-78
2022/10/10 08:49:19;;;;;;;8.05;3.17;;;;;;;14.79;100.00;99129.97;4988092;28;20072;-78
2022/10/10 08:51:54;;;;;;;8.38;4.05;;;;;;;14.75;100.00;99127.88;4977251;28;20046;-78
2022/10/10 08:54:25;;;;;;;5.38;4.10;;;;;;;14.57;100.00;99123.00;4983959;28;20050;-78
2022/10/10 08:56:58;;;;;;;7.15;4.68;;;;;;;14.46;100.00;99125.34;4991765;28;20504;-78
2022/10/10 08:59:28;;;;;;;11.02;4.38;;;;;;;14.41;100.00;99121.56;4990290;28;20053;-78
2022/10/10 09:01:58;;;;;;;;;;;;;;;14.52;100.00;99140.91;4992276;28;20053;-78
2022/10/10 09:04:24;;;;;;;6.65;4.18;;;;;;;14.57;100.00;99123.00;4990531;28;19921;-78
2022/10/10 09:07:07;;;;;;;12.20;4.25;;;;;;;14.57;100.00;99134.78;4981448;28;20130;-78
2022/10/10 09:09:40;;;;;;;6.60;4.50;;;;;;;14.66;100.00;99124.50;4986071;28;20050;-78
2022/10/10 09:12:19;;;;;;;6.53;4.18;;;;;;;14.77;100.00;99134.81;4990909;28;20046;-78
2022/10/10 09:14:50;;;;;;;10.75;3.80;;;;;;;14.84;100.00;99135.66;4990443;28;20089;-78
2022/10/10 09:17:36;;;;;;;9.20;4.07;;;;;;;14.73;100.00;99116.31;4991490;28;20486;-78
2022/10/10 09:20:15;;;;;;;6.78;4.03;;;;;;;14.76;100.00;99129.56;4991379;28;20227;-78
2022/10/10 09:22:49;;;;;;;10.98;5.18;;;;;;;14.88;100.00;99130.59;4988905;28;20133;-78
2022/10/10 09:25:20;;;;;;;8.05;4.38;;;;;;;14.90;100.00;99109.31;4990710;28;20129;-78
2022/10/10 09:27:56;;;;;;;6.75;3.25;;;;;;;15.00;100.00;99136.25;4991477;28;20057;-78
2022/10/10 09:30:24;;;;;;;6.45;3.42;;;;;;;15.02;99.67;99124.03;4991611;28;20081;-78
2022/10/10 09:32:54;;;;;;;6.85;3.65;;;;;;;15.17;98.42;99121.00;4990239;28;20138;-79
2022/10/10 09:35:24;;;;;;;5.70;3.67;;;;;;;15.40;99.03;99133.34;4991363;28;20057;-78
2022/10/10 09:37:59;;;;;;;7.28;3.10;;;;;;;15.39;99.81;99120.72;4974824;28;20050;-78
2022/10/10 09:40:29;;;;;;;4.68;3.25;;;;;;;15.56;99.60;99134.78;4972403;28;20055;-78
2022/10/10 09:42:56;;;;;;;6.55;3.42;;;;;;;15.53;98.93;99125.06;5021419;28;20086;-78
2022/10/10 09:45:28;;;;;;;5.40;3.05;;;;;;;15.52;96.67;99133.50;4991093;28;20060;-78
2022/10/10 09:47:56;;;;;;;7.97;3.22;;;;;;;15.58;97.35;99138.13;4985377;28;20051;-78
2022/10/10 09:50:23;;;;;;;8.30;3.70;;;;;;;15.54;98.14;99143.22;4971050;28;20142;-78
2022/10/10 09:52:52;;;;;;;6.07;3.15;;;;;;;15.68;100.00;99127.53;4986513;28;20050;-78
2022/10/10 09:55:25;;;;;;;6.97;3.37;;;;;;;15.82;98.10;99133.84;4991109;28;20053;-78
2022/10/10 09:57:53;;;;;;;7.95;3.42;;;;;;;15.92;95.46;99144.31;4990416;28;20523;-78
2022/10/10 10:00:35;;;;;;;6.40;3.20;;;;;;;16.09;96.36;99150.09;4971139;28;20054;-78
2022/10/10 10:03:11;;;;;;;7.70;3.40;;;;;;;16.28;92.36;99148.28;4990017;28;20131;-78
2022/10/10 10:05:38;;;;;;;7.10;2.80;;;;;;;16.23;90.75;99135.25;4990795;28;20050;-78
2022/10/10 10:08:19;;;;;;;4.60;2.60;;;;;;;16.42;87.88;99146.28;4990700;28;20125;-78
2022/10/10 10:10:45;;;;;;;;;;;;;;;16.44;89.82;99147.72;4991391;28;20512;-78
2022/10/10 10:13:14;;;;;;;7.63;3.35;;;;;;;16.42;94.73;99146.28;4987829;28;19922;-78
2022/10/10 10:15:49;;;;;;;9.63;4.45;;;;;;;16.34;92.00;99133.66;5020408;28;20050;-78
2022/10/10 10:18:24;;;;;;;5.55;3.60;;;;;;;16.28;93.58;99142.81;4971736;28;20054;-78
2022/10/10 10:20:53;;;;;;;8.98;3.20;;;;;;;16.27;95.68;99144.72;4979544;28;20107;-78
2022/10/10 10:23:27;;;;;;;7.85;3.88;;;;;;;16.32;96.27;99141.28;4989687;28;20073;-78
2022/10/10 10:25:57;;;;;;;9.25;3.47;;;;;;;16.39;93.98;99149.47;4990258;28;20057;-78
2022/10/10 10:28:24;;;;;;;8.10;3.30;;;;;;;16.41;91.85;99139.09;4990622;28;20125;-78
2022/10/10 10:30:53;;;;;;;7.53;2.60;;;;;;;16.39;92.65;99139.31;4971781;28;20074;-78
2022/10/10 10:36:47;;;;;;;10.02;4.35;;;;;;;16.36;93.66;99128.78;4974368;28;20047;-78
2022/10/10 10:39:30;;;;;;;7.53;3.28;;;;;;;16.38;92.74;99132.16;4990275;28;20057;-78
2022/10/10 10:42:05;;;;;;;6.70;3.10;;;;;;;16.46;95.14;99122.81;4990319;28;20057;-78
2022/10/10 10:44:40;;;;;;;4.78;2.88;;;;;;;16.63;94.09;99131.31;4988829;28;20051;-78
2022/10/10 10:47:22;;;;;;;14.82;3.08;;;;;;;16.62;93.78;99110.44;4988075;28;20402;-78
2022/10/10 10:49:59;;;;;;;8.50;3.55;;;;;;;16.79;92.34;99125.25;5031409;28;20470;-78
2022/10/10 10:52:36;;;;;;;10.93;3.38;;;;;;;16.75;89.44;99131.41;4977871;28;20057;-78
2022/10/10 10:55:25;;;;;;;9.45;3.40;;;;;;;16.75;92.13;99145.13;4970029;28;20059;-78
2022/10/10 10:58:11;;;;;;;6.60;2.85;;;;;;;16.76;92.25;99141.34;4973801;28;20055;-78
2022/10/10 11:00:46;;;;;;;10.38;3.10;;;;;;;16.71;92.71;99122.81;4988491;28;20047;-78
2022/10/10 11:03:25;;;;;;;7.38;2.45;;;;;;;16.78;90.91;99129.03;4989088;28;20466;-78
2022/10/10 11:05:57;;;;;;;6.55;2.88;;;;;;;16.85;91.95;99130.91;4989347;28;20042;-78
2022/10/10 11:08:39;;;;;;;5.85;3.33;;;;;;;16.82;93.18;99126.72;5024641;28;20061;-78
2022/10/10 11:11:21;;;;;;;11.43;3.50;;;;;;;16.74;92.66;99124.25;4990097;28;20058;-78
2022/10/10 11:13:56;;;;;;;6.70;3.03;;;;;;;16.98;94.12;99128.03;4975777;28;20049;-78
2022/10/10 11:16:27;;;;;;;5.47;2.65;;;;;;;17.07;93.35;99114.84;4970853;28;20053;-78
2022/10/10 11:19:04;;;;;;;7.35;2.80;;;;;;;17.24;90.18;99118.66;4970372;28;20057;-78
2022/10/10 11:21:32;;;;;;;8.65;2.75;;;;;;;17.28;89.68;99111.66;4983103;28;20050;-78
2022/10/10 11:24:05;;;;;;;8.10;3.20;;;;;;;17.32;88.58;99114.78;5038262;28;20097;-78
2022/10/10 11:26:37;;;;;;;5.63;2.50;;;;;;;17.52;88.69;99126.34;5057240;28;20129;-78
2022/10/10 11:29:10;;;;;;;9.27;3.60;;;;;;;17.60;87.08;99122.44;4989684;28;20055;-78
2022/10/10 11:31:40;;;;;;;7.47;3.05;;;;;;;17.77;87.90;99127.31;4990128;28;20050;-78
2022/10/10 11:34:12;;;;;;;7.00;2.95;;;;;;;17.80;85.50;99122.16;4988839;28;20478;-78
2022/10/10 11:36:44;;;;;;;7.72;2.55;;;;;;;17.87;86.65;99111.09;4977738;28;20047;-78
2022/10/10 11:39:15;;;;;;;3.83;2.38;;;;;;;17.93;85.21;99118.44;5048410;28;20055;-78
2022/10/10 11:41:47;;;;;;;8.65;2.60;;;;;;;18.11;86.21;99128.53;5096090;28;20052;-78
2022/10/10 11:44:20;;;;;;;7.65;2.28;;;;;;;18.06;84.54;99100.88;5095189;28;20043;-78
2022/10/10 11:46:54;;;;;;;4.43;2.47;;;;;;;18.27;84.42;99116.00;5096193;28;20066;-78
2022/10/10 11:49:27;;;;;;;7.85;2.30;;;;;;;18.31;84.77;99102.63;5095708;28;20149;-78
2022/10/10 11:52:13;;;;;;;5.78;2.00;;;;;;;18.39;83.61;99108.59;4985452;28;20042;-78
2022/10/10 11:54:45;;;;;;;8.93;2.22;;;;;;;18.49;82.53;99112.69;4979402;28;20050;-78
2022/10/10 11:57:18;;;;;;;9.10;2.85;;;;;;;18.52;80.94;99112.22;4989227;28;20043;-78
2022/10/10 11:59:50;;;;;;;8.30;2.50;;;;;;;18.55;81.11;99095.22;4973460;28;20059;-78
2022/10/10 12:02:21;;;;;;;4.22;2.42;;;;;;;18.67;79.06;99104.31;4972614;28;20081;-78
2022/10/10 12:04:47;;;;;;;6.85;2.42;;;;;;;18.48;80.46;99081.56;4972689;28;20506;-78
2022/10/10 12:07:20;;;;;;;10.25;2.58;;;;;;;18.70;79.54;99076.28;4973391;28;20065;-78
2022/10/10 12:09:52;;;;;;;7.20;2.40;;;;;;;18.83;79.45;99086.19;4991621;28;20054;-78
2022/10/10 12:12:25;;;;;;;12.30;2.38;;;;;;;18.95;76.11;99094.50;4984654;28;20058;-78
2022/10/10 12:14:54;;;;;;;3.72;1.73;;;;;;;19.04;75.68;99094.97;4992425;28;20390;-78
2022/10/10 12:17:26;;;;;;;6.15;1.90;;;;;;;19.10;74.66;99083.81;4992316;28;20054;-78
2022/10/10 12:19:53;;;;;;;4.45;2.10;;;;;;;19.09;74.05;99068.38;4992496;28;20046;-78
2022/10/10 12:22:27;;;;;;;7.30;2.40;;;;;;;19.18;74.92;99076.25;4991967;28;20055;-78
2022/10/10 12:25:24;;;;;;;5.10;2.00;;;;;;;19.18;72.31;99071.59;4977551;28;20055;-79
2022/10/10 12:28:27;;;;;;;7.80;2.22;;;;;;;19.34;72.04;99082.91;4982041;28;20049;-79
2022/10/10 12:31:19;;;;;;;9.70;2.47;;;;;;;19.44;75.45;99083.94;5006053;28;20134;-78
2022/10/10 12:34:05;;;;;;;8.00;2.67;;;;;;;19.49;72.14;99085.16;4984217;28;20043;-78
2022/10/10 12:37:20;;;;;;;5.75;1.88;;;;;;;19.53;71.95;99064.28;4972889;28;20065;-78
2022/10/10 12:40:21;;;;;;;14.23;2.05;;;;;;;19.69;70.76;99085.56;4972689;28;20104;-78
2022/10/10 12:43:18;;;;;;;12.07;2.13;;;;;;;19.62;69.22;99082.94;4972631;28;20055;-79
2022/10/10 12:46:18;;;;;;;9.30;2.03;;;;;;;19.66;68.73;99068.66;5020114;28;20043;-78
2022/10/10 12:48:46;;;;;;;5.90;2.42;;;;;;;19.85;69.76;99080.34;4955726;28;20055;-78
2022/10/10 12:51:20;;;;;;;7.70;2.10;;;;;;;19.93;65.80;99085.44;4991912;28;20050;-79
2022/10/10 12:53:51;;;;;;;4.85;1.95;;;;;;;19.75;63.65;99056.97;4991173;28;20050;-79
2022/10/10 12:56:33;;;;;;;9.85;3.42;;;;;;;19.78;64.08;99070.31;4991892;28;20057;-78
2022/10/10 12:59:00;;;;;;;9.63;2.40;;;;;;;19.83;64.49;99069.56;4989225;28;20447;-78
2022/10/10 13:01:32;;;;;;;7.40;1.85;;;;;;;19.99;62.53;99076.16;4983218;28;20580;-78
2022/10/10 13:03:59;;;;;;;8.23;2.22;;;;;;;20.05;63.75;99079.88;4990459;28;20050;-79
2022/10/10 13:06:33;;;;;;;6.32;2.40;;;;;;;20.11;64.03;99076.97;4992003;28;20050;-79
2022/10/10 13:09:02;;;;;;;14.88;2.35;;;;;;;20.05;63.22;99053.09;4991972;28;20054;-78
2022/10/10 13:11:29;;;;;;;9.57;2.90;;;;;;;20.08;65.09;99076.59;4991798;28;20099;-79
2022/10/10 13:13:57;;;;;;;8.73;2.50;;;;;;;20.03;64.23;99060.81;4989576;28;20053;-79
2022/10/10 13:16:25;;;;;;;7.82;2.38;;;;;;;20.20;64.38;99068.25;5002487;28;20055;-79
2022/10/10 13:18:55;;;;;;;9.38;2.30;;;;;;;20.22;64.50;99063.31;5035850;28;20042;-79
2022/10/10 13:21:22;;;;;;;;;;;;;;;20.40;64.26;99079.66;5011339;28;20055;-79
2022/10/10 13:23:51;;;;;;;13.73;2.30;;;;;;;20.41;63.57;99073.00;4971840;28;19925;-78
2022/10/10 13:26:22;;;;;;;12.88;2.40;;;;;;;20.46;62.70;99066.72;4972048;28;20104;-79
2022/10/10 13:28:49;;;;;;;14.60;2.45;;;;;;;20.51;62.23;99062.13;4971986;28;20089;-78
2022/10/10 13:31:16;;;;;;;7.15;2.17;;;;;;;20.50;62.18;99073.44;4981493;28;20054;-79
2022/10/10 13:33:42;;;;;;;11.38;2.40;;;;;;;20.47;62.96;99062.88;4989248;28;20065;-79
2022/10/10 13:36:20;;;;;;;7.60;2.35;;;;;;;20.48;61.42;99054.34;4991229;28;20494;-79
2022/10/10 13:38:50;;;;;;;8.10;2.83;;;;;;;20.58;61.61;99072.16;4991464;28;20065;-79
2022/10/10 13:41:17;;;;;;;14.57;2.60;;;;;;;20.54;61.19;99063.56;4990897;28;20494;-79
2022/10/10 13:43:44;;;;;;;11.18;2.22;;;;;;;20.45;62.05;99043.81;4990483;28;20479;-79
2022/10/10 13:46:21;;;;;;;7.85;2.30;;;;;;;20.78;61.12;99063.41;4982067;28;20062;-78
2022/10/10 13:48:49;;;;;;;11.65;2.15;;;;;;;20.75;60.16;99063.91;4971029;28;20046;-78
2022/10/10 13:51:18;;;;;;;6.30;2.30;;;;;;;20.68;60.90;99044.72;5037560;28;20075;-78
2022/10/10 13:53:54;;;;;;;12.25;2.25;;;;;;;20.98;61.10;99069.19;4982207;28;20050;-78
2022/10/10 13:56:27;;;;;;;6.20;2.30;;;;;;;21.08;59.62;99070.44;4971603;28;20047;-79
2022/10/10 13:58:56;;;;;;;6.22;2.10;;;;;;;20.89;59.05;99056.09;4972799;28;20046;-79
2022/10/10 14:01:36;;;;;;;6.97;2.00;;;;;;;20.98;60.00;99057.31;4988411;28;20057;-78
2022/10/10 14:04:19;;;;;;;16.00;2.30;;;;;;;21.12;59.66;99066.03;4990767;28;20049;-78
2022/10/10 14:06:56;;;;;;;7.05;2.63;;;;;;;21.06;58.63;99072.59;5028080;28;20147;-78
2022/10/10 14:09:29;;;;;;;6.70;2.42;;;;;;;21.04;58.09;99057.09;5050437;28;20136;-79
2022/10/10 14:11:56;;;;;;;6.53;1.90;;;;;;;21.19;57.78;99062.00;5070872;28;20096;-79
2022/10/10 14:14:25;;;;;;;12.18;2.42;;;;;;;21.16;57.52;99073.56;4980816;28;20393;-79
2022/10/10 14:17:00;;;;;;;6.53;2.27;;;;;;;21.13;57.26;99053.91;4971145;28;20054;-78
2022/10/10 14:19:27;;;;;;;7.95;2.40;;;;;;;20.99;59.31;99054.28;4971256;28;20057;-78
2022/10/10 14:21:55;;;;;;;9.10;2.67;;;;;;;20.98;59.48;99062.84;4971375;28;20074;-79
2022/10/10 14:24:21;;;;;;;11.90;2.35;;;;;;;20.74;60.36;99060.28;5005406;28;20044;-79
2022/10/10 14:26:48;;;;;;;6.30;2.17;;;;;;;20.69;60.45;99071.28;5050218;28;20040;-79
2022/10/10 14:29:17;;;;;;;10.30;2.35;;;;;;;20.74;60.52;99076.03;5092900;28;20048;-79
2022/10/10 14:31:44;;;;;;;14.18;2.38;;;;;;;20.79;59.28;99063.13;5092834;28;20065;-79
2022/10/10 14:34:11;;;;;;;9.10;2.60;;;;;;;20.70;58.05;99067.44;5060409;28;20050;-79
2022/10/10 14:36:40;;;;;;;15.63;2.58;;;;;;;20.70;60.00;99075.72;4990068;28;20046;-79
2022/10/10 14:39:08;;;;;;;6.65;2.40;;;;;;;20.72;61.60;99075.47;4978927;28;20433;-79
2022/10/10 14:41:34;;;;;;;15.00;2.67;;;;;;;20.35;60.85;99060.22;5018857;28;20040;-77
2022/10/10 14:44:01;;;;;;;9.60;2.70;;;;;;;20.24;60.71;99050.94;4998445;28;20553;-76
2022/10/10 14:46:27;;;;;;;14.50;2.38;;;;;;;20.47;60.92;99071.19;4990531;28;20065;-77
2022/10/10 14:48:54;;;;;;;16.08;2.58;;;;;;;20.40;57.12;99076.03;4990369;28;20508;-77
2022/10/10 14:51:20;;;;;;;13.80;2.42;;;;;;;20.29;57.75;99055.72;4980656;28;20061;-77
2022/10/10 14:53:47;;;;;;;12.38;3.20;;;;;;;20.24;58.17;99066.69;4969754;28;20046;-77
2022/10/10 14:56:15;;;;;;;14.60;3.03;;;;;;;20.26;58.68;99065.31;4990851;28;20048;-77
2022/10/10 14:58:41;;;;;;;8.95;2.17;;;;;;;20.23;58.60;99073.28;5025195;28;20466;-77
2022/10/10 15:01:08;;;;;;;17.50;2.58;;;;;;;20.08;58.32;99066.44;4990145;28;20054;-77
2022/10/10 15:03:35;;;;;;;5.55;1.98;;;;;;;20.24;58.87;99077.72;4989432;28;20136;-77
2022/10/10 15:06:01;;;;;;;13.45;2.05;;;;;;;20.31;59.74;99079.22;4983417;28;20054;-77
2022/10/10 15:08:28;;;;;;;21.13;3.20;;;;;;;20.30;58.83;99079.47;4977510;28;20058;-77
2022/10/10 15:10:56;;;;;;;13.85;2.25;;;;;;;20.13;58.99;99069.25;4986200;28;20074;-77
2022/10/10 15:13:24;;;;;;;13.82;2.08;;;;;;;20.02;59.11;99063.81;4989053;28;20107;-77
2022/10/10 15:15:50;;;;;;;19.40;2.08;;;;;;;20.15;57.94;99083.63;4993421;28;20054;-77
2022/10/10 15:18:17;;;;;;;14.07;3.08;;;;;;;20.03;59.58;99071.00;4993460;28;20054;-77
2022/10/10 15:20:43;;;;;;;14.77;2.40;;;;;;;19.94;59.19;99065.88;4993407;28;20055;-77
2022/10/10 15:23:10;;;;;;;13.57;3.25;;;;;;;19.75;59.66;99058.88;4986159;28;20073;-77
2022/10/10 15:25:41;;;;;;;14.40;1.83;;;;;;;19.86;60.46;99080.09;4973603;28;20053;-77
2022/10/10 15:28:07;;;;;;;13.80;2.25;;;;;;;19.88;62.21;99085.38;4992130;28;20065;-77
2022/10/10 15:30:35;;;;;;;15.55;2.70;;;;;;;19.67;63.97;99073.09;5024469;28;20103;-77
2022/10/10 15:33:02;;;;;;;16.67;2.50;;;;;;;19.87;65.86;99091.97;5052623;28;20047;-77
2022/10/10 15:35:28;;;;;;;8.90;2.20;;;;;;;19.60;67.14;99079.59;5096184;28;20044;-77
2022/10/10 15:37:55;;;;;;;10.50;2.28;;;;;;;19.64;68.03;99094.53;4995201;28;20051;-77
2022/10/10 15:40:23;;;;;;;10.63;2.88;;;;;;;19.66;68.59;99079.69;4991317;28;20065;-77
2022/10/10 15:42:50;;;;;;;6.50;3.22;;;;;;;19.52;71.59;99068.13;4992210;28;20057;-77
2022/10/10 15:45:17;;;;;;;17.58;3.97;;;;;;;19.53;72.90;99092.69;4993134;28;20054;-77
2022/10/10 15:47:45;;;;;;;10.32;2.00;;;;;;;19.31;73.89;99099.94;4992460;28;20061;-77
2022/10/10 15:50:11;;;;;;;8.65;2.92;;;;;;;19.34;73.48;99091.19;4993005;28;20050;-77
2022/10/10 15:52:38;;;;;;;14.88;2.30;;;;;;;19.30;74.62;99090.84;4983345;28;20050;-77
2022/10/10 15:55:06;;;;;;;12.77;2.70;;;;;;;19.24;74.00;99084.38;4973264;28;20043;-77
2022/10/10 15:57:32;;;;;;;11.07;2.30;;;;;;;19.44;71.31;99105.19;4973717;28;20051;-77
2022/10/10 15:59:59;;;;;;;7.57;2.25;;;;;;;19.27;72.61;99114.22;4971912;28;20051;-77
2022/10/10 16:02:25;;;;;;;13.77;2.95;;;;;;;19.21;74.30;99106.91;4989555;28;20050;-77
2022/10/10 16:04:53;;;;;;;15.15;2.40;;;;;;;19.11;76.37;99114.97;5012843;28;20050;-77
2022/10/10 16:07:20;;;;;;;8.98;2.58;;;;;;;19.02;77.71;99117.25;4991977;28;20421;-77
2022/10/10 16:09:46;;;;;;;14.23;2.35;;;;;;;19.04;78.21;99109.56;4987002;28;20701;-77
2022/10/10 16:12:13;;;;;;;11.50;2.20;;;;;;;18.81;83.14;99104.06;4984592;28;20050;-77
2022/10/10 16:14:39;;;;;;;11.68;2.63;;;;;;;18.70;85.51;99122.28;5004448;28;20044;-77
2022/10/10 16:17:06;;;;;;;8.25;3.20;;;;;;;18.42;88.39;99122.97;4991869;28;20050;-77
2022/10/10 16:19:33;;;;;;;11.18;2.47;;;;;;;18.31;89.02;99121.88;5020427;28;20071;-77
2022/10/10 16:22:01;;;;;;;13.60;2.45;;;;;;;18.12;90.28;99110.09;4992910;28;20062;-77
2022/10/10 16:24:27;;;;;;;12.50;2.40;;;;;;;18.14;91.60;99128.06;4977173;28;20133;-78
2022/10/10 16:26:55;;;;;;;11.02;2.45;;;;;;;18.10;92.04;99128.75;4985724;28;20405;-78
2022/10/10 16:29:21;;;;;;;11.15;3.22;;;;;;;18.03;93.43;99135.19;4987992;28;20042;-77
2022/10/10 16:31:48;;;;;;;9.20;2.30;;;;;;;17.80;94.71;99111.16;4989110;28;20057;-77
2022/10/10 16:34:16;;;;;;;13.93;2.60;;;;;;;17.78;94.08;99131.72;4988319;28;20685;-77
2022/10/10 16:36:43;;;;;;;9.88;2.55;;;;;;;17.65;91.41;99130.81;5031208;28;20046;-77
2022/10/10 16:39:11;;;;;;;14.68;2.83;;;;;;;17.58;92.28;99124.56;5089026;28;20135;-77
2022/10/10 16:41:38;;;;;;;19.23;3.05;;;;;;;17.49;93.47;99123.22;5013281;28;20178;-77
2022/10/10 16:44:05;;;;;;;15.68;2.83;;;;;;;17.44;96.95;99128.59;4969756;28;20678;-77
2022/10/10 16:46:31;;;;;;;10.68;2.88;;;;;;;17.26;98.83;99137.66;4968857;28;20055;-77
2022/10/10 16:48:59;;;;;;;13.90;3.25;;;;;;;17.02;98.84;99122.94;4970515;28;20055;-77
2022/10/10 16:51:28;;;;;;;20.00;3.80;;;;;;;16.93;98.50;99125.97;5052019;28;20047;-77
2022/10/10 16:53:55;;;;;;;42.17;4.13;;;;;;;16.87;98.17;99139.78;5091628;28;20125;-77
2022/10/10 16:56:23;;;;;;;40.88;4.50;;;;;;;16.71;99.61;99138.41;4971997;28;20325;-77
2022/10/10 16:58:50;;;;;;;52.40;5.93;;;;;;;16.64;99.54;99128.34;4970573;28;20145;-77
2022/10/10 17:01:19;;;;;;;23.05;3.20;;;;;;;16.63;100.00;99139.53;4972508;28;20061;-77
2022/10/10 17:03:46;;;;;;;30.30;6.25;;;;;;;16.46;100.00;99134.63;4976256;28;20047;-77
2022/10/10 17:06:17;;;;;;;16.20;2.70;;;;;;;16.38;100.00;99145.03;4987262;28;20510;-77
2022/10/10 17:08:44;;;;;;;26.90;3.20;;;;;;;16.23;100.00;99137.16;4988811;28;20141;-77
2022/10/10 17:11:13;;;;;;;11.55;2.58;;;;;;;16.01;100.00;99132.00;4973604;28;20080;-77
2022/10/10 17:13:41;;;;;;;26.55;3.22;;;;;;;15.74;100.00;99123.91;4977189;28;20059;-77
2022/10/10 17:16:12;;;;;;;15.27;2.80;;;;;;;15.70;100.00;99141.03;4982553;28;20051;-77
2022/10/10 17:18:39;;;;;;;7.95;2.50;;;;;;;15.78;100.00;99159.13;4984723;28;20463;-77
2022/10/10 17:21:09;;;;;;;10.05;3.00;;;;;;;15.75;100.00;99152.19;4983879;28;20053;-77
2022/10/10 17:23:35;;;;;;;12.80;3.00;;;;;;;15.74;100.00;99167.75;4978901;28;20078;-77
2022/10/10 17:26:05;;;;;;;8.98;3.25;;;;;;;15.61;100.00;99151.41;4974361;28;20043;-77
2022/10/10 17:28:31;;;;;;;12.40;3.63;;;;;;;15.58;100.00;99152.69;4984610;28;20418;-77
2022/10/10 17:30:59;;;;;;;9.00;4.93;;;;;;;15.73;100.00;99163.38;4978082;28;20051;-77
2022/10/10 17:33:26;;;;;;;17.27;3.80;;;;;;;15.70;100.00;99154.72;4973364;28;20925;-77
2022/10/10 17:35:52;;;;;;;13.88;2.97;;;;;;;15.71;100.00;99170.13;4981710;28;20081;-77
2022/10/10 17:38:19;;;;;;;16.30;3.85;;;;;;;15.72;100.00;99155.38;4987734;28;20060;-77
2022/10/10 17:40:56;;;;;;;27.02;4.05;;;;;;;15.70;100.00;99168.41;5031811;28;20050;-77
2022/10/10 17:43:23;;;;;;;11.13;2.92;;;;;;;15.61;100.00;99175.22;4972865;28;20059;-77
2022/10/10 17:45:50;;;;;;;17.17;3.05;;;;;;;15.47;100.00;99161.56;4967681;28;20100;-77
2022/10/10 17:48:18;;;;;;;17.85;2.90;;;;;;;15.53;100.00;99168.91;4969605;28;20054;-77
2022/10/10 17:50:46;;;;;;;14.23;3.40;;;;;;;15.41;100.00;99162.44;4977131;28;20057;-77
2022/10/10 17:53:13;;;;;;;12.32;3.05;;;;;;;15.32;100.00;99169.22;4987648;28;20056;-77
2022/10/10 17:55:41;;;;;;;18.40;3.30;;;;;;;15.38;100.00;99173.81;4980473;28;20050;-76
2022/10/10 17:58:07;;;;;;;20.63;2.92;;;;;;;15.37;100.00;99164.78;5043443;28;20048;-77
2022/10/10 18:00:34;;;;;;;15.05;2.85;;;;;;;15.39;100.00;99165.41;5091013;28;20047;-77
2022/10/10 18:03:01;;;;;;;10.07;3.35;;;;;;;15.34;100.00;99167.94;5090419;28;20058;-77
2022/10/10 18:05:29;;;;;;;12.85;3.20;;;;;;;15.57;100.00;99183.03;5091556;28;20048;-77
2022/10/10 18:07:56;;;;;;;11.48;3.60;;;;;;;15.42;100.00;99157.81;5091183;28;20054;-77
2022/10/10 18:10:23;;;;;;;13.50;3.00;;;;;;;15.48;100.00;99167.91;5062264;28;20051;-77
2022/10/10 18:12:49;;;;;;;11.25;2.95;;;;;;;15.39;100.00;99175.53;4971602;28;20058;-77
2022/10/10 18:15:16;;;;;;;15.00;3.72;;;;;;;15.17;100.00;99184.00;4988065;28;20042;-77
2022/10/10 18:17:43;;;;;;;13.48;2.80;;;;;;;15.21;100.00;99185.25;4982464;28;20055;-77
2022/10/10 18:20:11;;;;;;;8.18;3.35;;;;;;;15.20;100.00;99171.78;4988591;28;20058;-77
2022/10/10 18:22:39;;;;;;;10.40;3.83;;;;;;;15.11;100.00;99165.69;4987847;28;20579;-77
2022/10/10 18:25:06;;;;;;;24.00;3.33;;;;;;;14.92;100.00;99183.84;4988773;28;20409;-77
2022/10/10 18:27:33;;;;;;;12.10;3.95;;;;;;;14.79;100.00;99181.13;4970125;28;20054;-77
2022/10/10 18:29:59;;;;;;;15.10;3.35;;;;;;;14.83;100.00;99185.13;4987896;28;20369;-77
2022/10/10 18:32:26;;;;;;;14.43;5.15;;;;;;;14.81;100.00;99196.28;4982268;28;20059;-77
2022/10/10 18:34:52;;;;;;;12.75;4.03;;;;;;;14.69;100.00;99192.47;4987141;28;20073;-77
2022/10/10 18:37:19;;;;;;;9.35;3.97;;;;;;;14.79;100.00;99206.59;4987901;28;20908;-77